createdAt,value
2022-11-14T00:02:42.473Z,100166.66
2022-11-14T00:05:30.722Z,100162.13
2022-11-14T00:08:20.779Z,100162.81
2022-11-14T00:11:07.840Z,100167.03
2022-11-14T00:13:54.697Z,100169.47
2022-11-14T00:16:41.689Z,100160.59
2022-11-14T00:19:28.808Z,100157.81
2022-11-14T00:22:17.156Z,100156.69
2022-11-14T00:25:04.152Z,100160.84
2022-11-14T00:27:50.840Z,100158.03
2022-11-14T00:30:37.832Z,100145.72
2022-11-14T00:33:24.921Z,100146.53
2022-11-14T00:36:11.734Z,100149.88
2022-11-14T00:38:59.949Z,100145.44
2022-11-14T00:41:46.818Z,100147.13
2022-11-14T00:44:33.792Z,100135.78
2022-11-14T00:47:20.696Z,100141.72
2022-11-14T00:50:08.619Z,100131.19
2022-11-14T00:52:55.718Z,100127.63
2022-11-14T00:55:44.061Z,100124.06
2022-11-14T00:58:31.002Z,100119.72
2022-11-14T01:01:18.413Z,100121.38
2022-11-14T01:04:05.356Z,100114.34
2022-11-14T01:06:51.959Z,100119.53
2022-11-14T01:09:39.041Z,100118.72
2022-11-14T01:12:27.233Z,100108.41
2022-11-14T01:15:14.235Z,100106.88
2022-11-14T01:18:00.938Z,100093.28
2022-11-14T01:20:49.481Z,100091.63
2022-11-14T01:23:37.121Z,100085.78
2022-11-14T01:26:24.248Z,100086.75
2022-11-14T01:29:12.295Z,100078.28
2022-11-14T01:31:59.387Z,100071.63
2022-11-14T01:34:47.712Z,100067.69
2022-11-14T01:37:34.379Z,100068.94
2022-11-14T01:40:21.686Z,100060.78
2022-11-14T01:43:28.930Z,100062.19
2022-11-14T01:46:20.552Z,100046.09
2022-11-14T01:49:16.054Z,100052.63
2022-11-14T01:52:05.589Z,100038.28
2022-11-14T01:54:55.420Z,100031.88
2022-11-14T01:57:47.893Z,100032.34
2022-11-14T02:00:35.063Z,100037.09
2022-11-14T02:03:23.092Z,100027.94
2022-11-14T02:06:14.607Z,100035.16
2022-11-14T02:09:05.037Z,100037.22
2022-11-14T02:11:54.638Z,100038.34
2022-11-14T02:14:45.139Z,100035.19
2022-11-14T02:17:33.347Z,100046.63
2022-11-14T02:20:24.134Z,100045.97
2022-11-14T02:23:12.340Z,100039.13
2022-11-14T02:25:59.575Z,100044.47
2022-11-14T02:28:47.087Z,100029.81
2022-11-14T02:31:34.237Z,100038.56
2022-11-14T02:34:20.988Z,100030.78
2022-11-14T02:37:09.345Z,100025.56
2022-11-14T02:39:56.236Z,100023.75
2022-11-14T02:42:43.302Z,100021.94
2022-11-14T02:45:30.321Z,100022.72
2022-11-14T02:48:17.422Z,100012.25
2022-11-14T02:51:04.464Z,100015.53
2022-11-14T02:53:52.981Z,100014.50
2022-11-14T02:56:39.972Z,100012.66
2022-11-14T02:59:27.116Z,100011.66
2022-11-14T03:02:14.164Z,100011.53
2022-11-14T03:05:00.934Z,100015.78
2022-11-14T03:07:48.079Z,100013.94
2022-11-14T03:10:36.313Z,100016.44
2022-11-14T03:13:23.473Z,100006.78
2022-11-14T03:16:12.783Z,100010.94
2022-11-14T03:19:01.832Z,100003.09
2022-11-14T03:21:48.848Z,100005.63
2022-11-14T03:24:35.709Z,99996.88
2022-11-14T03:27:24.039Z,99998.50
2022-11-14T03:30:12.150Z,99997.63
2022-11-14T03:32:59.056Z,99993.19
2022-11-14T03:35:45.784Z,99995.78
2022-11-14T03:38:32.982Z,99988.84
2022-11-14T03:41:19.868Z,99989.63
2022-11-14T03:44:08.138Z,99987.78
2022-11-14T03:46:54.947Z,99991.22
2022-11-14T03:49:41.932Z,99989.38
2022-11-14T03:52:28.839Z,99995.38
2022-11-14T03:55:16.217Z,99993.63
2022-11-14T03:58:03.080Z,99983.16
2022-11-14T04:00:51.400Z,99990.91
2022-11-14T04:03:38.458Z,99988.19
2022-11-14T04:06:25.386Z,99977.75
2022-11-14T04:09:12.679Z,99983.75
2022-11-14T04:11:59.301Z,99982.78
2022-11-14T04:14:46.123Z,99983.63
2022-11-14T04:17:39.593Z,99978.31
2022-11-14T04:20:26.850Z,99966.94
2022-11-14T04:23:13.348Z,99964.28
2022-11-14T04:26:00.313Z,99964.22
2022-11-14T04:28:47.393Z,99965.88
2022-11-14T04:31:34.271Z,99967.50
2022-11-14T04:34:22.539Z,99976.03
2022-11-14T04:37:09.552Z,99973.38
2022-11-14T04:39:58.696Z,99973.25
2022-11-14T04:42:45.301Z,99977.56
2022-11-14T04:45:32.785Z,99974.00
2022-11-14T04:48:19.700Z,99972.22
2022-11-14T04:51:07.963Z,99974.75
2022-11-14T04:53:54.629Z,99969.47
2022-11-14T04:56:41.753Z,99965.94
2022-11-14T04:59:28.901Z,99964.09
2022-11-14T05:02:15.743Z,99968.34
2022-11-14T05:05:03.182Z,99960.41
2022-11-14T05:07:51.325Z,99958.56
2022-11-14T05:10:38.313Z,99954.19
2022-11-14T05:13:25.303Z,99954.94
2022-11-14T05:16:13.094Z,99952.25
2022-11-14T05:18:59.830Z,99946.19
2022-11-14T05:21:46.698Z,99937.44
2022-11-14T05:24:35.209Z,99946.91
2022-11-14T05:27:22.281Z,99934.72
2022-11-14T05:30:10.549Z,99932.88
2022-11-14T05:32:57.566Z,99919.84
2022-11-14T05:35:44.466Z,99924.97
2022-11-14T05:38:31.982Z,99921.47
2022-11-14T05:41:21.105Z,99916.28
2022-11-14T05:44:08.316Z,99915.47
2022-11-14T05:46:55.079Z,99924.09
2022-11-14T05:49:42.065Z,99922.28
2022-11-14T05:52:29.034Z,99924.09
2022-11-14T05:55:19.307Z,99920.66
2022-11-14T05:58:10.345Z,99925.97
2022-11-14T06:01:03.789Z,99913.16
2022-11-14T06:03:50.596Z,99908.91
2022-11-14T06:06:37.785Z,99902.91
2022-11-14T06:09:24.699Z,99908.16
2022-11-14T06:12:11.521Z,99914.25
2022-11-14T06:14:59.753Z,99904.81
2022-11-14T06:17:47.153Z,99905.75
2022-11-14T06:20:34.217Z,99903.25
2022-11-14T06:23:24.796Z,99898.13
2022-11-14T06:26:19.671Z,99893.94
2022-11-14T06:29:07.596Z,99900.13
2022-11-14T06:31:56.108Z,99902.81
2022-11-14T06:34:42.948Z,99908.09
2022-11-14T06:37:33.525Z,99911.59
2022-11-14T06:40:20.798Z,99915.13
2022-11-14T06:43:07.816Z,99908.22
2022-11-14T06:45:55.431Z,99913.41
2022-11-14T06:48:44.686Z,99918.59
2022-11-14T06:51:31.588Z,99922.91
2022-11-14T06:54:18.826Z,99922.00
2022-11-14T06:57:05.671Z,99921.06
2022-11-14T06:59:52.546Z,99918.47
2022-11-14T07:02:39.522Z,99914.91
2022-11-14T07:05:27.756Z,99907.94
2022-11-14T07:08:19.777Z,99913.94
2022-11-14T07:11:09.847Z,99914.84
2022-11-14T07:13:58.593Z,99916.56
2022-11-14T07:16:45.407Z,99914.78
2022-11-14T07:19:32.020Z,99913.13
2022-11-14T07:22:20.237Z,99914.91
2022-11-14T07:25:08.166Z,99918.47
2022-11-14T07:27:57.822Z,99915.91
2022-11-14T07:30:44.909Z,99921.28
2022-11-14T07:33:32.316Z,99919.59
2022-11-14T07:36:19.433Z,99910.19
2022-11-14T07:39:07.830Z,99913.81
2022-11-14T07:41:54.706Z,99921.72
2022-11-14T07:44:41.636Z,99918.38
2022-11-14T07:47:28.619Z,99926.38
2022-11-14T07:50:20.176Z,99928.31
2022-11-14T07:53:07.876Z,99928.56
2022-11-14T07:55:56.060Z,99914.94
2022-11-14T07:58:43.192Z,99921.31
2022-11-14T08:01:30.306Z,99915.44
2022-11-14T08:04:17.164Z,99918.25
2022-11-14T08:07:04.199Z,99917.66
2022-11-14T08:09:51.254Z,99909.16
2022-11-14T08:12:39.683Z,99915.44
2022-11-14T08:15:27.038Z,99914.81
2022-11-14T08:18:13.904Z,99914.97
2022-11-14T08:21:04.284Z,99913.47
2022-11-14T08:23:51.025Z,99900.78
2022-11-14T08:26:38.003Z,99905.31
2022-11-14T08:29:26.407Z,99898.66
2022-11-14T08:32:13.523Z,99899.75
2022-11-14T08:35:00.185Z,99896.56
2022-11-14T08:37:47.238Z,99897.63
2022-11-14T08:40:34.143Z,99893.56
2022-11-14T08:43:21.066Z,99904.16
2022-11-14T08:46:10.555Z,99893.16
2022-11-14T08:48:57.519Z,99898.56
2022-11-14T08:51:44.526Z,99873.53
2022-11-14T08:54:31.627Z,99878.91
2022-11-14T08:57:18.915Z,99868.66
2022-11-14T09:00:06.514Z,99865.34
2022-11-14T09:02:54.625Z,99864.59
2022-11-14T09:05:41.755Z,99860.41
2022-11-14T09:08:29.635Z,99866.66
2022-11-14T09:11:19.093Z,99878.97
2022-11-14T09:14:06.020Z,99884.28
2022-11-14T09:16:52.623Z,99879.19
2022-11-14T09:19:40.966Z,99886.22
2022-11-14T09:22:27.739Z,99888.03
2022-11-14T09:25:14.602Z,99887.19
2022-11-14T09:28:05.542Z,99880.38
2022-11-14T09:30:52.101Z,99890.03
2022-11-14T09:33:39.229Z,99879.72
2022-11-14T09:36:27.360Z,99878.94
2022-11-14T09:39:14.789Z,99872.06
2022-11-14T09:42:17.313Z,99888.66
2022-11-14T09:45:07.194Z,99882.66
2022-11-14T09:47:57.184Z,99887.94
2022-11-14T09:50:49.847Z,99890.66
2022-11-14T09:53:44.344Z,99887.22
2022-11-14T09:56:30.957Z,99877.69
2022-11-14T09:59:18.398Z,99875.16
2022-11-14T10:02:16.476Z,99876.91
2022-11-14T10:05:22.134Z,99873.44
2022-11-14T10:08:26.019Z,99873.44
2022-11-14T10:11:22.909Z,99865.69
2022-11-14T10:14:42.803Z,99871.78
2022-11-14T10:17:48.847Z,99863.16
2022-11-14T10:20:43.150Z,99859.72
2022-11-14T10:23:39.901Z,99864.03
2022-11-14T10:26:31.040Z,99852.84
2022-11-14T10:29:51.796Z,99849.38
2022-11-14T10:33:09.523Z,99857.28
2022-11-14T10:36:04.449Z,99853.03
2022-11-14T10:38:55.815Z,99850.47
2022-11-14T10:42:06.155Z,99847.97
2022-11-14T10:45:03.264Z,99834.16
2022-11-14T10:47:55.223Z,99839.44
2022-11-14T10:50:46.549Z,99838.72
2022-11-14T10:53:44.618Z,99832.81
2022-11-14T10:56:31.715Z,99828.63
2022-11-14T10:59:20.446Z,99825.28
2022-11-14T11:02:07.303Z,99829.81
2022-11-14T11:04:54.443Z,99821.28
2022-11-14T11:08:28.336Z,99835.34
2022-11-14T11:11:32.099Z,99831.22
2022-11-14T11:14:20.768Z,99819.19
2022-11-14T11:17:31.335Z,99802.84
2022-11-14T11:20:28.220Z,99796.03
2022-11-14T11:23:21.068Z,99792.72
2022-11-14T11:26:16.347Z,99794.59
2022-11-14T11:29:15.779Z,99795.75
2022-11-14T11:32:03.828Z,99796.81
2022-11-14T11:34:52.236Z,99787.53
2022-11-14T11:37:44.916Z,99787.72
2022-11-14T11:40:31.975Z,99799.25
2022-11-14T11:43:39.224Z,99803.75
2022-11-14T11:46:34.558Z,99820.41
2022-11-14T11:49:30.469Z,99807.41
2022-11-14T11:52:18.943Z,99776.09
2022-11-14T11:55:17.286Z,99767.47
2022-11-14T11:58:07.940Z,99767.63
2022-11-14T12:00:55.850Z,99752.97
2022-11-14T12:03:47.460Z,99747.03
2022-11-14T12:06:43.766Z,99741.03
2022-11-14T12:10:08.811Z,99742.00
2022-11-14T12:13:13.537Z,99729.00
2022-11-14T12:16:13.321Z,99720.38
2022-11-14T12:19:24.093Z,99716.94
2022-11-14T12:22:34.500Z,99718.69
2022-11-14T12:25:57.229Z,99711.78
2022-11-14T12:29:05.426Z,99704.88
2022-11-14T12:31:58.813Z,99706.72
2022-11-14T12:34:48.177Z,99696.31
2022-11-14T12:37:43.391Z,99701.63
2022-11-14T12:40:33.542Z,99698.25
2022-11-14T12:43:36.690Z,99690.41
2022-11-14T12:46:24.038Z,99694.81
2022-11-14T12:49:38.618Z,99704.47
2022-11-14T12:52:49.669Z,99718.50
2022-11-14T12:55:57.445Z,99708.97
2022-11-14T12:59:00.704Z,99720.31
2022-11-14T13:01:59.762Z,99724.72
2022-11-14T13:05:04.088Z,99723.88
2022-11-14T13:08:07.421Z,99728.25
2022-11-14T13:10:54.525Z,99732.63
2022-11-14T13:14:18.178Z,99734.38
2022-11-14T13:17:41.152Z,99724.78
2022-11-14T13:20:48.650Z,99727.41
2022-11-14T13:23:58.697Z,99727.41
2022-11-14T13:26:56.170Z,99730.84
2022-11-14T13:29:51.456Z,99723.00
2022-11-14T13:32:55.010Z,99731.66
2022-11-14T13:36:05.072Z,99721.13
2022-11-14T13:39:24.550Z,99717.59
2022-11-14T13:42:31.335Z,99705.28
2022-11-14T13:45:38.609Z,99719.22
2022-11-14T13:48:57.146Z,99709.63
2022-11-14T13:51:45.182Z,99714.81
2022-11-14T13:54:33.745Z,99722.59
2022-11-14T13:57:28.986Z,99705.16
2022-11-14T14:00:20.714Z,99702.50
2022-11-14T14:03:33.113Z,99693.72
2022-11-14T14:06:35.645Z,99702.50
2022-11-14T14:09:29.507Z,99701.63
2022-11-14T14:12:34.971Z,99692.03
2022-11-14T14:15:28.775Z,99693.78
2022-11-14T14:18:28.933Z,99678.03
2022-11-14T14:21:28.327Z,99685.00
2022-11-14T14:24:29.836Z,99685.88
2022-11-14T14:27:26.563Z,99671.00
2022-11-14T14:30:16.561Z,99681.47
2022-11-14T14:33:10.154Z,99675.41
2022-11-14T14:35:56.807Z,99664.03
2022-11-14T14:38:43.526Z,99657.13
2022-11-14T14:41:32.699Z,99664.91
2022-11-14T14:44:26.560Z,99661.44
2022-11-14T14:47:17.611Z,99664.00
2022-11-14T14:50:14.080Z,99653.53
2022-11-14T14:53:02.383Z,99643.91
2022-11-14T14:55:55.354Z,99645.63
2022-11-14T14:58:42.320Z,99635.16
2022-11-14T15:01:35.169Z,99637.72
2022-11-14T15:04:24.318Z,99641.22
2022-11-14T15:07:21.614Z,99635.06
2022-11-14T15:10:09.461Z,99640.31
2022-11-14T15:12:57.298Z,99643.78
2022-11-14T15:15:44.929Z,99643.72
2022-11-14T15:18:34.167Z,99639.34
2022-11-14T15:21:28.277Z,99639.31
2022-11-14T15:24:17.815Z,99636.69
2022-11-14T15:27:06.620Z,99628.84
2022-11-14T15:29:55.119Z,99627.06
2022-11-14T15:32:49.410Z,99631.41
2022-11-14T15:35:39.732Z,99619.22
2022-11-14T15:41:35.998Z,99610.44
2022-11-14T15:44:33.332Z,99612.13
2022-11-14T15:47:23.071Z,99618.25
2022-11-14T15:50:28.664Z,99618.22
2022-11-14T15:53:24.815Z,99618.13
2022-11-14T15:56:14.641Z,99619.00
2022-11-14T15:59:02.316Z,99620.69
2022-11-14T16:01:52.934Z,99619.81
2022-11-14T16:04:46.005Z,99623.22
2022-11-14T16:07:33.868Z,99617.06
2022-11-14T16:10:23.946Z,99620.56
2022-11-14T16:13:11.455Z,99619.63
2022-11-14T16:15:58.501Z,99615.22
2022-11-14T16:18:45.349Z,99613.47
2022-11-14T16:21:32.666Z,99622.16
2022-11-14T16:24:21.204Z,99612.56
2022-11-14T16:27:10.490Z,99611.69
2022-11-14T16:29:57.482Z,99613.41
2022-11-14T16:32:46.821Z,99609.00
2022-11-14T16:35:33.891Z,99606.41
2022-11-14T16:38:20.809Z,99602.03
2022-11-14T16:41:08.584Z,99601.16
2022-11-14T16:43:58.213Z,99602.91
2022-11-14T16:46:45.827Z,99600.25
2022-11-14T16:49:32.730Z,99609.81
2022-11-14T16:52:19.901Z,99604.59
2022-11-14T16:55:07.570Z,99604.59
2022-11-14T16:57:55.027Z,99603.72
2022-11-14T17:00:45.036Z,99603.72
2022-11-14T17:03:32.901Z,99604.59
2022-11-14T17:06:20.325Z,99604.59
2022-11-14T17:09:07.133Z,99608.06
2022-11-14T17:11:53.932Z,99608.94
2022-11-14T17:14:41.097Z,99603.72
2022-11-14T17:17:29.468Z,99607.19
2022-11-14T17:20:16.580Z,99600.19
2022-11-14T17:23:03.358Z,99599.38
2022-11-14T17:25:50.277Z,99600.19
2022-11-14T17:28:38.429Z,99592.34
2022-11-14T17:31:25.021Z,99593.22
2022-11-14T17:34:13.533Z,99595.81
2022-11-14T17:37:00.330Z,99589.72
2022-11-14T17:39:47.171Z,99590.56
2022-11-14T17:42:34.157Z,99581.03
2022-11-14T17:45:20.984Z,99588.84
2022-11-14T17:48:07.961Z,99581.03
2022-11-14T17:50:56.624Z,99584.50
2022-11-14T17:53:43.984Z,99579.22
2022-11-14T17:56:30.704Z,99580.09
2022-11-14T17:59:18.345Z,99587.03
2022-11-14T18:02:05.424Z,99589.63
2022-11-14T18:04:52.783Z,99591.38
2022-11-14T18:07:41.147Z,99585.22
2022-11-14T18:10:28.115Z,99594.78
2022-11-14T18:13:15.110Z,99589.56
2022-11-14T18:16:03.078Z,99593.03
2022-11-14T18:18:51.322Z,99596.53
2022-11-14T18:21:39.816Z,99592.97
2022-11-14T18:24:28.223Z,99590.38
2022-11-14T18:27:15.254Z,99592.97
2022-11-14T18:30:19.774Z,99593.84
2022-11-14T18:33:08.296Z,99593.84
2022-11-14T18:35:58.655Z,99597.28
2022-11-14T18:38:45.747Z,99606.03
2022-11-14T18:41:34.273Z,99593.78
2022-11-14T18:44:23.136Z,99592.88
2022-11-14T18:47:10.097Z,99586.78
2022-11-14T18:49:59.253Z,99590.25
2022-11-14T18:52:46.230Z,99587.63
2022-11-14T18:55:33.163Z,99591.06
2022-11-14T18:58:21.584Z,99594.53
2022-11-14T19:01:12.578Z,99601.50
2022-11-14T19:04:02.254Z,99598.84
2022-11-14T19:06:49.293Z,99587.47
2022-11-14T19:09:35.985Z,99588.31
2022-11-14T19:12:23.493Z,99588.25
2022-11-14T19:15:12.191Z,99593.38
2022-11-14T19:17:59.338Z,99591.56
2022-11-14T19:20:46.721Z,99591.50
2022-11-14T19:23:34.558Z,99592.19
2022-11-14T19:26:21.911Z,99599.03
2022-11-14T19:29:13.201Z,99597.22
2022-11-14T19:32:01.290Z,99587.56
2022-11-14T19:34:48.141Z,99592.69
2022-11-14T19:37:35.311Z,99596.16
2022-11-14T19:40:22.220Z,99593.47
2022-11-14T19:43:11.779Z,99585.53
2022-11-14T19:46:02.191Z,99591.56
2022-11-14T19:48:50.602Z,99594.97
2022-11-14T19:51:37.451Z,99599.28
2022-11-14T19:54:24.228Z,99593.16
2022-11-14T19:57:11.179Z,99592.22
2022-11-14T19:59:58.194Z,99593.88
2022-11-14T20:02:46.656Z,99597.28
2022-11-14T20:05:35.113Z,99587.63
2022-11-14T20:08:21.990Z,99586.66
2022-11-14T20:11:09.144Z,99591.81
2022-11-14T20:13:57.413Z,99596.00
2022-11-14T20:16:45.013Z,99600.25
2022-11-14T20:19:31.961Z,99604.56
2022-11-14T20:22:20.553Z,99604.47
2022-11-14T20:25:08.156Z,99619.13
2022-11-14T20:27:55.006Z,99613.00
2022-11-14T20:30:42.726Z,99610.34
2022-11-14T20:33:30.381Z,99610.34
2022-11-14T20:36:19.643Z,99605.13
2022-11-14T20:39:08.190Z,99613.81
2022-11-14T20:41:55.283Z,99610.34
2022-11-14T20:44:42.464Z,99622.53
2022-11-14T20:47:29.887Z,99620.84
2022-11-14T20:50:17.347Z,99610.34
2022-11-14T20:53:04.551Z,99609.50
2022-11-14T20:55:55.845Z,99606.88
2022-11-14T20:58:43.621Z,99598.25
2022-11-14T21:01:30.615Z,99581.75
2022-11-14T21:04:17.778Z,99596.66
2022-11-14T21:07:04.459Z,99589.75
2022-11-14T21:10:11.843Z,99581.97
2022-11-14T21:13:17.468Z,99585.56
2022-11-14T21:16:07.330Z,99592.59
2022-11-14T21:18:55.147Z,99582.31
2022-11-14T21:21:42.250Z,99583.19
2022-11-14T21:24:31.506Z,99584.13
2022-11-14T21:27:20.145Z,99584.25
2022-11-14T21:30:09.681Z,99586.13
2022-11-14T21:32:56.617Z,99588.75
2022-11-14T21:35:43.657Z,99583.63
2022-11-14T21:38:30.674Z,99583.72
2022-11-14T21:41:19.510Z,99594.22
2022-11-14T21:44:06.252Z,99593.47
2022-11-14T21:46:54.345Z,99576.13
2022-11-14T21:49:41.326Z,99583.19
2022-11-14T21:52:28.363Z,99581.50
2022-11-14T21:55:15.385Z,99574.63
2022-11-14T21:58:02.254Z,99572.94
2022-11-14T22:00:49.326Z,99567.78
2022-11-14T22:03:55.398Z,99572.22
2022-11-14T22:06:43.224Z,99565.34
2022-11-14T22:09:30.872Z,99563.66
2022-11-14T22:12:17.766Z,99564.66
2022-11-14T22:15:05.406Z,99569.94
2022-11-14T22:17:52.346Z,99563.91
2022-11-14T22:20:40.813Z,99569.19
2022-11-14T22:23:28.683Z,99569.31
2022-11-14T22:26:15.968Z,99572.91
2022-11-14T22:29:02.614Z,99559.03
2022-11-14T22:31:52.733Z,99560.88
2022-11-14T22:34:39.660Z,99555.72
2022-11-14T22:37:27.933Z,99554.09
2022-11-14T22:40:14.876Z,99557.69
2022-11-14T22:43:01.952Z,99558.66
2022-11-14T22:45:52.372Z,99562.28
2022-11-14T22:48:39.377Z,99562.38
2022-11-14T22:51:28.226Z,99566.81
2022-11-14T22:54:16.493Z,99565.16
2022-11-14T22:57:03.668Z,99561.78
2022-11-14T22:59:50.605Z,99563.63
2022-11-14T23:02:37.477Z,99566.31
2022-11-14T23:05:24.516Z,99563.78
2022-11-14T23:08:12.196Z,99562.09
2022-11-14T23:11:04.445Z,99569.19
2022-11-14T23:13:52.569Z,99569.22
2022-11-14T23:16:39.512Z,99565.84
2022-11-14T23:19:26.579Z,99569.38
2022-11-14T23:22:13.400Z,99557.25
2022-11-14T23:25:00.327Z,99555.56
2022-11-14T23:27:52.127Z,99552.16
2022-11-14T23:30:39.142Z,99547.84
2022-11-14T23:33:26.284Z,99553.16
2022-11-14T23:36:13.027Z,99552.41
2022-11-14T23:38:59.747Z,99544.59
2022-11-14T23:41:46.776Z,99541.22
2022-11-14T23:44:35.093Z,99541.25
2022-11-14T23:47:22.093Z,99538.78
2022-11-14T23:50:10.495Z,99532.72
2022-11-14T23:52:57.250Z,99530.16
2022-11-14T23:55:44.157Z,99537.22
2022-11-14T23:58:31.395Z,99535.50
